sensor_id;sensor_type;location;lat;lon;timestamp;temperature;humidity
56123;DHT22;42426;46.104;19.656;2022-10-16T00:02:07;359.20;2048.00
56123;DHT22;42426;46.104;19.656;2022-10-16T00:04:33;359.20;2022.40
56123;DHT22;42426;46.104;19.656;2022-10-16T00:06:59;359.20;2048.00
56123;DHT22;42426;46.104;19.656;2022-10-16T00:09:25;359.10;2048.00
56123;DHT22;42426;46.104;19.656;2022-10-16T00:11:51;359.20;2048.00
56123;DHT22;42426;46.104;19.656;2022-10-16T00:14:19;359.20;2048.00
56123;DHT22;42426;46.104;19.656;2022-10-16T00:16:45;359.20;2048.00
56123;DHT22;42426;46.104;19.656;2022-10-16T00:19:11;359.10;2048.00
56123;DHT22;42426;46.104;19.656;2022-10-16T00:21:41;359.20;2048.00
56123;DHT22;42426;46.104;19.656;2022-10-16T00:24:08;359.10;2048.00
56123;DHT22;42426;46.104;19.656;2022-10-16T00:26:38;359.10;2048.00
56123;DHT22;42426;46.104;19.656;2022-10-16T00:29:05;359.10;2048.00
56123;DHT22;42426;46.104;19.656;2022-10-16T00:31:31;359.10;2048.00
56123;DHT22;42426;46.104;19.656;2022-10-16T00:33:58;359.20;2048.00
56123;DHT22;42426;46.104;19.656;2022-10-16T00:36:25;359.10;2048.00
56123;DHT22;42426;46.104;19.656;2022-10-16T00:38:55;359.20;2048.00
56123;DHT22;42426;46.104;19.656;2022-10-16T00:41:24;359.10;2048.00
56123;DHT22;42426;46.104;19.656;2022-10-16T00:43:55;359.10;2048.00
56123;DHT22;42426;46.104;19.656;2022-10-16T00:46:24;359.10;2048.00
56123;DHT22;42426;46.104;19.656;2022-10-16T00:51:49;359.10;2048.00
56123;DHT22;42426;46.104;19.656;2022-10-16T00:54:22;359.00;2048.00
56123;DHT22;42426;46.104;19.656;2022-10-16T00:56:49;359.00;2048.00
56123;DHT22;42426;46.104;19.656;2022-10-16T00:59:20;359.10;2073.60
56123;DHT22;42426;46.104;19.656;2022-10-16T01:01:48;358.90;2073.60
56123;DHT22;42426;46.104;19.656;2022-10-16T01:04:14;358.90;2073.60
56123;DHT22;42426;46.104;19.656;2022-10-16T01:14:58;358.70;2073.60
56123;DHT22;42426;46.104;19.656;2022-10-16T01:17:33;358.70;2099.20
56123;DHT22;42426;46.104;19.656;2022-10-16T01:28:18;358.70;2073.60
56123;DHT22;42426;46.104;19.656;2022-10-16T01:30:46;358.80;2099.20
56123;DHT22;42426;46.104;19.656;2022-10-16T01:33:20;358.70;2099.20
56123;DHT22;42426;46.104;19.656;2022-10-16T01:35:58;358.60;2099.20
56123;DHT22;42426;46.104;19.656;2022-10-16T01:40:59;358.60;2099.20
56123;DHT22;42426;46.104;19.656;2022-10-16T01:43:58;358.60;2099.20
56123;DHT22;42426;46.104;19.656;2022-10-16T01:46:28;358.50;2099.20
56123;DHT22;42426;46.104;19.656;2022-10-16T01:48:54;358.50;2099.20
56123;DHT22;42426;46.104;19.656;2022-10-16T01:51:22;358.50;2124.80
56123;DHT22;42426;46.104;19.656;2022-10-16T01:53:53;358.50;2099.20
56123;DHT22;42426;46.104;19.656;2022-10-16T01:56:21;358.50;2099.20
56123;DHT22;42426;46.104;19.656;2022-10-16T01:58:55;358.40;2099.20
56123;DHT22;42426;46.104;19.656;2022-10-16T02:01:24;358.40;2124.80
56123;DHT22;42426;46.104;19.656;2022-10-16T02:03:56;358.40;2124.80
56123;DHT22;42426;46.104;19.656;2022-10-16T02:06:23;358.40;2124.80
56123;DHT22;42426;46.104;19.656;2022-10-16T02:08:49;358.40;2124.80
56123;DHT22;42426;46.104;19.656;2022-10-16T02:11:14;358.40;2124.80
56123;DHT22;42426;46.104;19.656;2022-10-16T02:14:00;358.40;2099.20
56123;DHT22;42426;46.104;19.656;2022-10-16T02:16:40;358.40;2124.80
56123;DHT22;42426;46.104;19.656;2022-10-16T02:19:07;358.40;2124.80
56123;DHT22;42426;46.104;19.656;2022-10-16T02:21:56;333.70;2124.80
56123;DHT22;42426;46.104;19.656;2022-10-16T02:24:43;333.70;2124.80
56123;DHT22;42426;46.104;19.656;2022-10-16T02:27:33;333.70;2124.80
56123;DHT22;42426;46.104;19.656;2022-10-16T02:32:34;333.70;2124.80
56123;DHT22;42426;46.104;19.656;2022-10-16T02:35:01;333.60;2124.80
56123;DHT22;42426;46.104;19.656;2022-10-16T02:37:28;333.60;2124.80
56123;DHT22;42426;46.104;19.656;2022-10-16T02:39:56;333.60;2150.40
56123;DHT22;42426;46.104;19.656;2022-10-16T02:42:37;333.60;2150.40
56123;DHT22;42426;46.104;19.656;2022-10-16T02:45:04;333.60;2150.40
56123;DHT22;42426;46.104;19.656;2022-10-16T02:47:30;333.60;2150.40
56123;DHT22;42426;46.104;19.656;2022-10-16T02:49:56;333.60;2150.40
56123;DHT22;42426;46.104;19.656;2022-10-16T02:52:22;333.60;2150.40
56123;DHT22;42426;46.104;19.656;2022-10-16T02:54:47;333.60;2150.40
56123;DHT22;42426;46.104;19.656;2022-10-16T02:57:13;333.60;2150.40
56123;DHT22;42426;46.104;19.656;2022-10-16T02:59:40;333.50;2150.40
56123;DHT22;42426;46.104;19.656;2022-10-16T03:02:06;333.50;2150.40
56123;DHT22;42426;46.104;19.656;2022-10-16T03:04:32;333.50;2150.40
56123;DHT22;42426;46.104;19.656;2022-10-16T03:06:58;333.50;2150.40
56123;DHT22;42426;46.104;19.656;2022-10-16T03:09:23;333.50;2150.40
56123;DHT22;42426;46.104;19.656;2022-10-16T03:11:49;333.50;2176.00
56123;DHT22;42426;46.104;19.656;2022-10-16T03:14:15;333.40;2150.40
56123;DHT22;42426;46.104;19.656;2022-10-16T03:16:41;333.40;2176.00
56123;DHT22;42426;46.104;19.656;2022-10-16T03:19:07;333.40;2176.00
56123;DHT22;42426;46.104;19.656;2022-10-16T03:21:32;333.40;2176.00
56123;DHT22;42426;46.104;19.656;2022-10-16T03:23:58;333.40;2176.00
56123;DHT22;42426;46.104;19.656;2022-10-16T03:26:24;333.40;2201.60
56123;DHT22;42426;46.104;19.656;2022-10-16T03:28:52;333.40;2176.00
56123;DHT22;42426;46.104;19.656;2022-10-16T03:31:21;333.40;2176.00
56123;DHT22;42426;46.104;19.656;2022-10-16T03:33:49;333.40;2176.00
56123;DHT22;42426;46.104;19.656;2022-10-16T03:36:15;333.40;2176.00
56123;DHT22;42426;46.104;19.656;2022-10-16T03:38:41;333.30;2201.60
56123;DHT22;42426;46.104;19.656;2022-10-16T03:41:08;333.30;2201.60
56123;DHT22;42426;46.104;19.656;2022-10-16T03:43:34;333.30;2201.60
56123;DHT22;42426;46.104;19.656;2022-10-16T03:45:59;333.30;2176.00
56123;DHT22;42426;46.104;19.656;2022-10-16T03:48:26;333.30;2201.60
56123;DHT22;42426;46.104;19.656;2022-10-16T03:50:52;333.30;2201.60
56123;DHT22;42426;46.104;19.656;2022-10-16T03:53:18;333.30;2201.60
56123;DHT22;42426;46.104;19.656;2022-10-16T03:55:44;333.30;2201.60
56123;DHT22;42426;46.104;19.656;2022-10-16T03:58:11;333.30;2201.60
56123;DHT22;42426;46.104;19.656;2022-10-16T04:00:40;333.20;2201.60
56123;DHT22;42426;46.104;19.656;2022-10-16T04:03:07;333.30;2201.60
56123;DHT22;42426;46.104;19.656;2022-10-16T04:05:32;333.20;2201.60
56123;DHT22;42426;46.104;19.656;2022-10-16T04:07:59;333.20;2201.60
56123;DHT22;42426;46.104;19.656;2022-10-16T04:10:25;333.20;2201.60
56123;DHT22;42426;46.104;19.656;2022-10-16T04:12:52;333.20;2227.20
56123;DHT22;42426;46.104;19.656;2022-10-16T04:15:20;333.10;2227.20
56123;DHT22;42426;46.104;19.656;2022-10-16T04:17:45;333.10;2227.20
56123;DHT22;42426;46.104;19.656;2022-10-16T04:20:12;333.10;2227.20
56123;DHT22;42426;46.104;19.656;2022-10-16T04:22:37;333.10;2227.20
56123;DHT22;42426;46.104;19.656;2022-10-16T04:25:04;333.00;2227.20
56123;DHT22;42426;46.104;19.656;2022-10-16T04:27:30;333.00;2227.20
56123;DHT22;42426;46.104;19.656;2022-10-16T04:29:58;333.00;2227.20
56123;DHT22;42426;46.104;19.656;2022-10-16T04:32:25;333.00;2227.20
56123;DHT22;42426;46.104;19.656;2022-10-16T04:34:51;333.00;2227.20
56123;DHT22;42426;46.104;19.656;2022-10-16T04:37:17;333.00;2227.20
56123;DHT22;42426;46.104;19.656;2022-10-16T04:39:42;333.00;2227.20
56123;DHT22;42426;46.104;19.656;2022-10-16T04:42:09;332.90;2227.20
56123;DHT22;42426;46.104;19.656;2022-10-16T04:44:34;333.10;2227.20
56123;DHT22;42426;46.104;19.656;2022-10-16T04:47:01;332.90;2227.20
56123;DHT22;42426;46.104;19.656;2022-10-16T04:49:27;332.90;2252.80
56123;DHT22;42426;46.104;19.656;2022-10-16T04:51:53;332.90;2252.80
56123;DHT22;42426;46.104;19.656;2022-10-16T04:54:19;332.80;2252.80
56123;DHT22;42426;46.104;19.656;2022-10-16T04:56:44;332.80;2252.80
56123;DHT22;42426;46.104;19.656;2022-10-16T04:59:17;332.90;2252.80
56123;DHT22;42426;46.104;19.656;2022-10-16T05:01:43;332.80;2252.80
56123;DHT22;42426;46.104;19.656;2022-10-16T05:04:10;332.80;2252.80
56123;DHT22;42426;46.104;19.656;2022-10-16T05:06:37;332.80;2252.80
56123;DHT22;42426;46.104;19.656;2022-10-16T05:09:05;332.80;2252.80
56123;DHT22;42426;46.104;19.656;2022-10-16T05:11:31;333.00;2252.80
56123;DHT22;42426;46.104;19.656;2022-10-16T05:13:57;332.80;2252.80
56123;DHT22;42426;46.104;19.656;2022-10-16T05:16:23;332.80;2252.80
56123;DHT22;42426;46.104;19.656;2022-10-16T05:18:48;308.10;2252.80
56123;DHT22;42426;46.104;19.656;2022-10-16T05:21:14;308.10;2252.80
56123;DHT22;42426;46.104;19.656;2022-10-16T05:23:40;308.10;2252.80
56123;DHT22;42426;46.104;19.656;2022-10-16T05:26:06;308.10;2252.80
56123;DHT22;42426;46.104;19.656;2022-10-16T05:28:34;332.80;2278.40
56123;DHT22;42426;46.104;19.656;2022-10-16T05:31:07;332.80;2278.40
56123;DHT22;42426;46.104;19.656;2022-10-16T07:01:52;333.70;2252.80
56123;DHT22;42426;46.104;19.656;2022-10-16T07:04:19;333.60;2278.40
56123;DHT22;42426;46.104;19.656;2022-10-16T07:09:11;358.40;2176.00
56123;DHT22;42426;46.104;19.656;2022-10-16T07:11:39;333.60;2201.60
56123;DHT22;42426;46.104;19.656;2022-10-16T07:14:16;333.60;2201.60
56123;DHT22;42426;46.104;19.656;2022-10-16T07:16:42;333.60;2201.60
56123;DHT22;42426;46.104;19.656;2022-10-16T07:19:10;333.70;2201.60
56123;DHT22;42426;46.104;19.656;2022-10-16T07:21:37;333.70;2201.60
56123;DHT22;42426;46.104;19.656;2022-10-16T07:24:05;358.40;2201.60
56123;DHT22;42426;46.104;19.656;2022-10-16T07:26:34;358.50;2176.00
56123;DHT22;42426;46.104;19.656;2022-10-16T07:29:00;358.60;2176.00
56123;DHT22;42426;46.104;19.656;2022-10-16T07:31:26;358.60;2176.00
56123;DHT22;42426;46.104;19.656;2022-10-16T07:33:53;358.70;2150.40
56123;DHT22;42426;46.104;19.656;2022-10-16T07:36:20;358.80;2150.40
56123;DHT22;42426;46.104;19.656;2022-10-16T07:38:47;358.80;2150.40
56123;DHT22;42426;46.104;19.656;2022-10-16T07:41:17;358.80;2124.80
56123;DHT22;42426;46.104;19.656;2022-10-16T07:43:48;358.90;2124.80
56123;DHT22;42426;46.104;19.656;2022-10-16T07:46:15;359.10;2124.80
56123;DHT22;42426;46.104;19.656;2022-10-16T07:48:42;359.10;2329.60
56123;DHT22;42426;46.104;19.656;2022-10-16T07:51:11;359.10;2124.80
56123;DHT22;42426;46.104;19.656;2022-10-16T07:53:37;359.20;2124.80
56123;DHT22;42426;46.104;19.656;2022-10-16T07:56:06;359.20;2124.80
56123;DHT22;42426;46.104;19.656;2022-10-16T07:58:33;359.30;2124.80
56123;DHT22;42426;46.104;19.656;2022-10-16T08:01:04;384.00;2124.80
56123;DHT22;42426;46.104;19.656;2022-10-16T08:03:30;384.10;2099.20
56123;DHT22;42426;46.104;19.656;2022-10-16T08:05:57;384.20;2099.20
56123;DHT22;42426;46.104;19.656;2022-10-16T08:08:23;384.20;2099.20
56123;DHT22;42426;46.104;19.656;2022-10-16T08:10:49;384.30;2073.60
56123;DHT22;42426;46.104;19.656;2022-10-16T08:13:17;384.30;2073.60
56123;DHT22;42426;46.104;19.656;2022-10-16T08:15:43;384.40;2073.60
56123;DHT22;42426;46.104;19.656;2022-10-16T08:18:11;384.40;2073.60
56123;DHT22;42426;46.104;19.656;2022-10-16T08:20:37;384.40;2048.00
56123;DHT22;42426;46.104;19.656;2022-10-16T08:23:03;384.50;2048.00
56123;DHT22;42426;46.104;19.656;2022-10-16T08:25:30;384.60;2022.40
56123;DHT22;42426;46.104;19.656;2022-10-16T08:27:56;384.70;2022.40
56123;DHT22;42426;46.104;19.656;2022-10-16T08:30:23;384.80;2022.40
56123;DHT22;42426;46.104;19.656;2022-10-16T08:32:49;409.60;2022.40
56123;DHT22;42426;46.104;19.656;2022-10-16T08:35:15;409.60;2022.40
56123;DHT22;42426;46.104;19.656;2022-10-16T08:37:42;409.60;2022.40
56123;DHT22;42426;46.104;19.656;2022-10-16T08:40:20;409.60;2022.40
56123;DHT22;42426;46.104;19.656;2022-10-16T08:50:43;409.90;2022.40
56123;DHT22;42426;46.104;19.656;2022-10-16T08:53:16;410.00;1996.80
56123;DHT22;42426;46.104;19.656;2022-10-16T08:56:01;410.00;2022.40
56123;DHT22;42426;46.104;19.656;2022-10-16T08:58:28;410.00;1996.80
56123;DHT22;42426;46.104;19.656;2022-10-16T09:00:57;410.10;1996.80
56123;DHT22;42426;46.104;19.656;2022-10-16T09:03:55;410.20;1996.80
56123;DHT22;42426;46.104;19.656;2022-10-16T09:15:05;435.20;1971.20
56123;DHT22;42426;46.104;19.656;2022-10-16T09:17:51;410.50;1971.20
56123;DHT22;42426;46.104;19.656;2022-10-16T09:23:15;435.50;1945.60
56123;DHT22;42426;46.104;19.656;2022-10-16T09:25:45;435.60;1920.00
56123;DHT22;42426;46.104;19.656;2022-10-16T09:28:13;435.70;1894.40
56123;DHT22;42426;46.104;19.656;2022-10-16T09:30:39;435.70;1894.40
56123;DHT22;42426;46.104;19.656;2022-10-16T09:33:05;435.70;1894.40
56123;DHT22;42426;46.104;19.656;2022-10-16T09:35:37;435.90;1894.40
56123;DHT22;42426;46.104;19.656;2022-10-16T09:38:03;436.10;1843.20
56123;DHT22;42426;46.104;19.656;2022-10-16T09:40:37;435.90;1868.80
56123;DHT22;42426;46.104;19.656;2022-10-16T09:46:00;436.00;1843.20
56123;DHT22;42426;46.104;19.656;2022-10-16T09:48:36;461.00;1868.80
56123;DHT22;42426;46.104;19.656;2022-10-16T09:51:04;436.10;1817.60
56123;DHT22;42426;46.104;19.656;2022-10-16T09:53:44;436.10;1792.00
56123;DHT22;42426;46.104;19.656;2022-10-16T09:56:12;460.80;1817.60
56123;DHT22;42426;46.104;19.656;2022-10-16T09:58:50;460.90;1843.20
56123;DHT22;42426;46.104;19.656;2022-10-16T10:01:17;461.00;1817.60
56123;DHT22;42426;46.104;19.656;2022-10-16T10:11:57;461.10;1766.40
56123;DHT22;42426;46.104;19.656;2022-10-16T10:14:39;461.20;1766.40
56123;DHT22;42426;46.104;19.656;2022-10-16T10:20:13;461.20;1766.40
56123;DHT22;42426;46.104;19.656;2022-10-16T10:30:39;461.40;1766.40
56123;DHT22;42426;46.104;19.656;2022-10-16T11:20:42;487.20;1638.40
56123;DHT22;42426;46.104;19.656;2022-10-16T11:23:34;487.00;1638.40
56123;DHT22;42426;46.104;19.656;2022-10-16T11:26:05;487.10;1664.00
56123;DHT22;42426;46.104;19.656;2022-10-16T11:28:39;487.10;1664.00
56123;DHT22;42426;46.104;19.656;2022-10-16T11:34:33;487.20;1638.40
56123;DHT22;42426;46.104;19.656;2022-10-16T11:37:27;487.20;1664.00
56123;DHT22;42426;46.104;19.656;2022-10-16T11:39:58;487.10;1638.40
56123;DHT22;42426;46.104;19.656;2022-10-16T11:42:40;487.10;1638.40
56123;DHT22;42426;46.104;19.656;2022-10-16T11:48:08;487.30;1638.40
56123;DHT22;42426;46.104;19.656;2022-10-16T11:56:06;512.10;1612.80
56123;DHT22;42426;46.104;19.656;2022-10-16T12:06:52;512.30;1612.80
56123;DHT22;42426;46.104;19.656;2022-10-16T12:09:32;512.40;1612.80
56123;DHT22;42426;46.104;19.656;2022-10-16T12:11:58;512.50;1587.20
56123;DHT22;42426;46.104;19.656;2022-10-16T12:17:22;512.60;1561.60
56123;DHT22;42426;46.104;19.656;2022-10-16T12:20:24;512.60;1536.00
56123;DHT22;42426;46.104;19.656;2022-10-16T12:23:07;512.70;1536.00
56123;DHT22;42426;46.104;19.656;2022-10-16T12:25:54;512.70;1536.00
56123;DHT22;42426;46.104;19.656;2022-10-16T12:28:22;512.70;1536.00
56123;DHT22;42426;46.104;19.656;2022-10-16T12:31:09;512.80;1561.60
56123;DHT22;42426;46.104;19.656;2022-10-16T12:33:42;512.80;1536.00
56123;DHT22;42426;46.104;19.656;2022-10-16T12:36:27;512.80;1536.00
56123;DHT22;42426;46.104;19.656;2022-10-16T12:38:54;512.80;1536.00
56123;DHT22;42426;46.104;19.656;2022-10-16T15:20:36;537.60;1612.80
56123;DHT22;42426;46.104;19.656;2022-10-16T15:23:05;512.80;1587.20
56123;DHT22;42426;46.104;19.656;2022-10-16T15:37:47;512.30;1664.00
56123;DHT22;42426;46.104;19.656;2022-10-16T15:40:13;512.00;1664.00
56123;DHT22;42426;46.104;19.656;2022-10-16T15:42:39;487.20;1689.60
56123;DHT22;42426;46.104;19.656;2022-10-16T15:45:06;487.10;1715.20
56123;DHT22;42426;46.104;19.656;2022-10-16T15:47:32;487.00;1715.20
56123;DHT22;42426;46.104;19.656;2022-10-16T15:49:58;487.10;1740.80
56123;DHT22;42426;46.104;19.656;2022-10-16T15:52:24;486.90;1766.40
56123;DHT22;42426;46.104;19.656;2022-10-16T15:54:50;486.70;1766.40
56123;DHT22;42426;46.104;19.656;2022-10-16T15:57:15;486.70;1766.40
56123;DHT22;42426;46.104;19.656;2022-10-16T15:59:41;486.60;1766.40
56123;DHT22;42426;46.104;19.656;2022-10-16T16:02:08;486.50;1766.40
56123;DHT22;42426;46.104;19.656;2022-10-16T16:04:34;486.50;1766.40
56123;DHT22;42426;46.104;19.656;2022-10-16T16:07:00;486.40;1766.40
56123;DHT22;42426;46.104;19.656;2022-10-16T16:09:29;461.70;1792.00
56123;DHT22;42426;46.104;19.656;2022-10-16T16:11:54;461.70;1817.60
56123;DHT22;42426;46.104;19.656;2022-10-16T16:14:20;461.60;1817.60
56123;DHT22;42426;46.104;19.656;2022-10-16T16:16:46;461.60;1817.60
56123;DHT22;42426;46.104;19.656;2022-10-16T16:19:12;461.50;1817.60
56123;DHT22;42426;46.104;19.656;2022-10-16T16:21:38;461.50;1843.20
56123;DHT22;42426;46.104;19.656;2022-10-16T16:24:04;461.40;1843.20
56123;DHT22;42426;46.104;19.656;2022-10-16T16:26:34;461.30;1868.80
56123;DHT22;42426;46.104;19.656;2022-10-16T16:29:03;461.30;1843.20
56123;DHT22;42426;46.104;19.656;2022-10-16T16:31:31;461.20;1868.80
56123;DHT22;42426;46.104;19.656;2022-10-16T16:33:57;461.20;1868.80
56123;DHT22;42426;46.104;19.656;2022-10-16T16:36:24;461.10;1868.80
56123;DHT22;42426;46.104;19.656;2022-10-16T16:38:50;461.10;1868.80
56123;DHT22;42426;46.104;19.656;2022-10-16T16:41:20;461.00;1894.40
56123;DHT22;42426;46.104;19.656;2022-10-16T16:43:46;461.00;1894.40
56123;DHT22;42426;46.104;19.656;2022-10-16T16:46:18;460.90;1894.40
56123;DHT22;42426;46.104;19.656;2022-10-16T16:48:45;460.90;1894.40
56123;DHT22;42426;46.104;19.656;2022-10-16T16:51:14;460.80;1894.40
56123;DHT22;42426;46.104;19.656;2022-10-16T16:53:48;460.80;1920.00
56123;DHT22;42426;46.104;19.656;2022-10-16T16:56:14;436.10;1894.40
56123;DHT22;42426;46.104;19.656;2022-10-16T16:58:40;436.00;1894.40
56123;DHT22;42426;46.104;19.656;2022-10-16T17:01:10;435.90;1920.00
56123;DHT22;42426;46.104;19.656;2022-10-16T17:03:36;435.90;1920.00
56123;DHT22;42426;46.104;19.656;2022-10-16T17:06:05;435.90;1920.00
56123;DHT22;42426;46.104;19.656;2022-10-16T17:08:32;435.90;1920.00
56123;DHT22;42426;46.104;19.656;2022-10-16T17:10:59;435.90;1920.00
56123;DHT22;42426;46.104;19.656;2022-10-16T17:13:26;435.80;1920.00
56123;DHT22;42426;46.104;19.656;2022-10-16T17:18:19;436.00;1945.60
56123;DHT22;42426;46.104;19.656;2022-10-16T17:20:46;435.80;1945.60
56123;DHT22;42426;46.104;19.656;2022-10-16T17:23:14;435.70;1996.80
56123;DHT22;42426;46.104;19.656;2022-10-16T17:25:40;435.60;2022.40
56123;DHT22;42426;46.104;19.656;2022-10-16T19:18:39;410.10;2022.40
56123;DHT22;42426;46.104;19.656;2022-10-16T19:21:08;410.00;2022.40
56123;DHT22;42426;46.104;19.656;2022-10-16T19:23:35;409.90;2048.00
56123;DHT22;42426;46.104;19.656;2022-10-16T19:26:06;409.80;2048.00
56123;DHT22;42426;46.104;19.656;2022-10-16T19:28:32;409.80;2048.00
56123;DHT22;42426;46.104;19.656;2022-10-16T20:24:37;384.80;2073.60
56123;DHT22;42426;46.104;19.656;2022-10-16T20:27:03;384.70;2073.60
56123;DHT22;42426;46.104;19.656;2022-10-16T20:29:28;384.50;2099.20
56123;DHT22;42426;46.104;19.656;2022-10-16T20:31:54;384.50;2099.20
56123;DHT22;42426;46.104;19.656;2022-10-16T20:34:20;384.40;2099.20
56123;DHT22;42426;46.104;19.656;2022-10-16T20:36:46;384.40;2099.20
56123;DHT22;42426;46.104;19.656;2022-10-16T20:39:12;384.40;2099.20
56123;DHT22;42426;46.104;19.656;2022-10-16T20:41:40;384.40;2099.20
56123;DHT22;42426;46.104;19.656;2022-10-16T20:44:06;384.40;2099.20
56123;DHT22;42426;46.104;19.656;2022-10-16T20:46:32;384.30;2124.80
56123;DHT22;42426;46.104;19.656;2022-10-16T20:48:58;384.30;2124.80
56123;DHT22;42426;46.104;19.656;2022-10-16T20:51:27;384.30;2124.80
56123;DHT22;42426;46.104;19.656;2022-10-16T20:54:02;384.30;2150.40
56123;DHT22;42426;46.104;19.656;2022-10-16T20:56:29;384.20;2124.80
56123;DHT22;42426;46.104;19.656;2022-10-16T20:58:57;384.20;2124.80
56123;DHT22;42426;46.104;19.656;2022-10-16T21:01:24;384.20;2124.80
56123;DHT22;42426;46.104;19.656;2022-10-16T21:03:56;384.20;2150.40
56123;DHT22;42426;46.104;19.656;2022-10-16T21:06:23;384.20;2124.80
56123;DHT22;42426;46.104;19.656;2022-10-16T21:08:49;384.10;2124.80
56123;DHT22;42426;46.104;19.656;2022-10-16T21:13:43;384.00;2124.80
56123;DHT22;42426;46.104;19.656;2022-10-16T21:16:10;384.00;2150.40
56123;DHT22;42426;46.104;19.656;2022-10-16T21:18:36;384.00;2124.80
56123;DHT22;42426;46.104;19.656;2022-10-16T21:21:02;384.00;2124.80
56123;DHT22;42426;46.104;19.656;2022-10-16T21:23:28;384.00;2124.80
56123;DHT22;42426;46.104;19.656;2022-10-16T21:25:55;384.00;2124.80
56123;DHT22;42426;46.104;19.656;2022-10-16T21:28:21;384.00;2124.80
56123;DHT22;42426;46.104;19.656;2022-10-16T21:30:47;384.00;2124.80
56123;DHT22;42426;46.104;19.656;2022-10-16T21:33:13;384.00;2124.80
56123;DHT22;42426;46.104;19.656;2022-10-16T21:35:39;359.30;2124.80
56123;DHT22;42426;46.104;19.656;2022-10-16T21:38:06;384.00;2124.80
56123;DHT22;42426;46.104;19.656;2022-10-16T21:40:33;384.00;2124.80
56123;DHT22;42426;46.104;19.656;2022-10-16T21:42:59;384.00;2124.80
56123;DHT22;42426;46.104;19.656;2022-10-16T21:45:24;384.00;2099.20
56123;DHT22;42426;46.104;19.656;2022-10-16T21:47:50;384.00;2099.20
56123;DHT22;42426;46.104;19.656;2022-10-16T21:50:16;384.00;2099.20
56123;DHT22;42426;46.104;19.656;2022-10-16T21:52:42;384.00;2099.20
56123;DHT22;42426;46.104;19.656;2022-10-16T21:55:08;384.00;2099.20
56123;DHT22;42426;46.104;19.656;2022-10-16T21:57:34;359.30;2099.20
56123;DHT22;42426;46.104;19.656;2022-10-16T22:00:02;359.30;2099.20
56123;DHT22;42426;46.104;19.656;2022-10-16T22:02:28;359.30;2099.20
56123;DHT22;42426;46.104;19.656;2022-10-16T22:04:54;359.30;2099.20
56123;DHT22;42426;46.104;19.656;2022-10-16T22:07:20;359.30;2099.20
56123;DHT22;42426;46.104;19.656;2022-10-16T22:09:45;359.20;2099.20
56123;DHT22;42426;46.104;19.656;2022-10-16T22:12:11;359.20;2099.20
56123;DHT22;42426;46.104;19.656;2022-10-16T22:14:38;359.20;2099.20
56123;DHT22;42426;46.104;19.656;2022-10-16T22:17:04;359.20;2073.60
56123;DHT22;42426;46.104;19.656;2022-10-16T22:19:30;359.20;2124.80
56123;DHT22;42426;46.104;19.656;2022-10-16T22:21:55;384.00;2099.20
56123;DHT22;42426;46.104;19.656;2022-10-16T22:24:22;359.20;2099.20
56123;DHT22;42426;46.104;19.656;2022-10-16T22:26:48;359.20;2099.20
56123;DHT22;42426;46.104;19.656;2022-10-16T22:29:15;359.20;2099.20
56123;DHT22;42426;46.104;19.656;2022-10-16T22:31:42;359.20;2124.80
56123;DHT22;42426;46.104;19.656;2022-10-16T22:34:11;384.00;2099.20
56123;DHT22;42426;46.104;19.656;2022-10-16T22:36:37;359.10;2099.20
56123;DHT22;42426;46.104;19.656;2022-10-16T22:39:04;359.10;2124.80
56123;DHT22;42426;46.104;19.656;2022-10-16T22:41:30;359.30;2124.80
